createdAt,value
2022-09-26T00:00:16.082Z,99.24
2022-09-26T00:00:36.135Z,99.2
2022-09-26T00:00:56.235Z,99.17
2022-09-26T00:01:16.360Z,99.1
2022-09-26T00:01:36.492Z,99.1
2022-09-26T00:01:56.506Z,99.06
2022-09-26T00:02:16.479Z,99.04
2022-09-26T00:02:36.648Z,99.07
2022-09-26T00:02:56.691Z,99.06
2022-09-26T00:03:16.599Z,99.02
2022-09-26T00:03:36.685Z,99.02
2022-09-26T00:03:56.763Z,98.99
2022-09-26T00:04:18.489Z,99.02
2022-09-26T00:04:36.891Z,99.01
2022-09-26T00:04:56.933Z,99.1
2022-09-26T00:05:16.999Z,99.09
2022-09-26T00:05:37.071Z,99.14
2022-09-26T00:05:57.140Z,99.19
2022-09-26T00:06:17.196Z,99.23
2022-09-26T00:06:37.245Z,99.23
2022-09-26T00:06:57.315Z,99.26
2022-09-26T00:07:17.363Z,99.27
2022-09-26T00:07:37.427Z,99.26
2022-09-26T00:07:57.490Z,99.3
2022-09-26T00:08:17.550Z,99.3
2022-09-26T00:08:37.637Z,99.3
2022-09-26T00:08:57.714Z,99.34
2022-09-26T00:09:17.747Z,99.33
2022-09-26T00:09:37.822Z,99.34
2022-09-26T00:09:57.887Z,99.37
2022-09-26T00:10:17.972Z,99.32
2022-09-26T00:10:38.023Z,99.35
2022-09-26T00:10:58.082Z,99.32
2022-09-26T00:11:18.139Z,99.35
2022-09-26T00:11:38.205Z,99.37
2022-09-26T00:11:58.258Z,99.36
2022-09-26T00:12:18.324Z,99.36
2022-09-26T00:12:38.401Z,99.34
2022-09-26T00:12:58.443Z,99.37
2022-09-26T00:13:18.512Z,99.38
2022-09-26T00:13:38.570Z,99.38
2022-09-26T00:13:58.634Z,99.37
2022-09-26T00:14:18.659Z,99.37
2022-09-26T00:14:38.756Z,99.41
2022-09-26T00:14:58.807Z,99.38
2022-09-26T00:15:18.891Z,99.4
2022-09-26T00:15:38.965Z,99.43
2022-09-26T00:15:58.982Z,99.46
2022-09-26T00:16:19.153Z,99.47
2022-09-26T00:16:39.182Z,99.46
2022-09-26T00:16:59.319Z,99.52
2022-09-26T00:17:19.276Z,99.49
2022-09-26T00:17:39.325Z,99.51
2022-09-26T00:17:59.365Z,99.55
2022-09-26T00:18:19.416Z,99.51
2022-09-26T00:18:39.502Z,99.53
2022-09-26T00:18:59.564Z,99.5
2022-09-26T00:19:19.612Z,99.5
2022-09-26T00:19:39.673Z,99.49
2022-09-26T00:19:59.744Z,99.5
2022-09-26T00:20:19.791Z,99.48
2022-09-26T00:20:39.830Z,99.47
2022-09-26T00:20:59.902Z,99.51
2022-09-26T00:21:19.993Z,99.46
2022-09-26T00:21:40.057Z,99.48
2022-09-26T00:22:00.130Z,99.45
2022-09-26T00:22:20.194Z,99.42
2022-09-26T00:22:40.313Z,99.39
2022-09-26T00:23:00.336Z,99.33
2022-09-26T00:23:20.396Z,99.33
2022-09-26T00:23:40.471Z,99.35
2022-09-26T00:24:00.536Z,99.34
2022-09-26T00:24:20.603Z,99.32
2022-09-26T00:24:40.659Z,99.31
2022-09-26T00:25:00.713Z,99.28
2022-09-26T00:25:20.788Z,99.3
2022-09-26T00:25:40.820Z,99.28
2022-09-26T00:26:00.912Z,99.34
2022-09-26T00:26:20.943Z,99.38
2022-09-26T00:26:41.006Z,99.44
2022-09-26T00:27:01.078Z,99.51
2022-09-26T00:27:21.130Z,99.51
2022-09-26T00:27:41.185Z,99.55
2022-09-26T00:28:01.274Z,99.55
2022-09-26T00:28:21.295Z,99.6
2022-09-26T00:28:41.352Z,99.69
2022-09-26T00:29:01.399Z,99.68
2022-09-26T00:29:21.445Z,99.76
2022-09-26T00:29:41.556Z,99.73
2022-09-26T00:30:01.635Z,99.82
2022-09-26T00:30:21.813Z,99.84
2022-09-26T00:30:41.864Z,99.84
2022-09-26T00:31:01.868Z,99.85
2022-09-26T00:31:22.068Z,99.89
2022-09-26T00:31:41.906Z,99.88
2022-09-26T00:32:02.000Z,99.93
2022-09-26T00:32:22.019Z,99.95
2022-09-26T00:32:42.101Z,99.96
2022-09-26T00:33:02.193Z,99.98
2022-09-26T00:33:22.295Z,100
2022-09-26T00:33:42.346Z,99.98
2022-09-26T00:34:02.431Z,99.98
2022-09-26T00:34:22.529Z,100
2022-09-26T00:34:42.543Z,100
2022-09-26T00:35:02.580Z,100
2022-09-26T00:35:22.625Z,100
2022-09-26T00:35:42.686Z,100
2022-09-26T00:36:02.761Z,100
2022-09-26T00:36:29.776Z,100
2022-09-26T00:36:42.877Z,100
2022-09-26T00:37:02.958Z,100
2022-09-26T00:37:23.022Z,100
2022-09-26T00:37:43.078Z,100
2022-09-26T00:38:03.170Z,100
2022-09-26T00:38:23.237Z,100
2022-09-26T00:38:43.298Z,100
2022-09-26T00:39:03.362Z,100
2022-09-26T00:39:23.422Z,100
2022-09-26T00:39:43.468Z,100
2022-09-26T00:40:03.528Z,100
2022-09-26T00:40:23.686Z,100
2022-09-26T00:40:43.777Z,100
2022-09-26T00:41:03.741Z,100
2022-09-26T00:41:23.797Z,100
2022-09-26T00:41:43.875Z,100
2022-09-26T00:42:03.935Z,100
2022-09-26T00:42:23.972Z,100
2022-09-26T00:42:44.017Z,100
2022-09-26T00:43:04.104Z,100
2022-09-26T00:43:24.166Z,100
2022-09-26T00:43:44.235Z,100
2022-09-26T00:44:04.281Z,100
2022-09-26T00:44:24.366Z,100
2022-09-26T00:44:44.430Z,100
2022-09-26T00:45:04.455Z,100
2022-09-26T00:45:24.520Z,100
2022-09-26T00:45:44.650Z,100
2022-09-26T00:46:04.693Z,100
2022-09-26T00:46:24.779Z,100
2022-09-26T00:46:44.780Z,100
2022-09-26T00:47:04.845Z,100
2022-09-26T00:47:24.903Z,100
2022-09-26T00:47:44.961Z,100
2022-09-26T00:48:05.018Z,100
2022-09-26T00:48:25.089Z,100
2022-09-26T00:48:45.182Z,100
2022-09-26T00:49:05.270Z,100
2022-09-26T00:49:25.313Z,100
2022-09-26T00:49:45.331Z,100
2022-09-26T00:50:05.400Z,100
2022-09-26T00:50:25.451Z,100
2022-09-26T00:50:45.483Z,100
2022-09-26T00:51:05.538Z,100
2022-09-26T00:51:25.618Z,100
2022-09-26T00:51:45.695Z,100
2022-09-26T00:52:05.744Z,100
2022-09-26T00:52:25.780Z,100
2022-09-26T00:52:45.844Z,100
2022-09-26T00:53:05.906Z,100
2022-09-26T00:53:25.981Z,100
2022-09-26T00:53:46.028Z,100
2022-09-26T00:54:06.109Z,100
2022-09-26T00:54:26.155Z,100
2022-09-26T00:54:46.225Z,100
2022-09-26T00:55:06.323Z,100
2022-09-26T00:55:26.394Z,100
2022-09-26T00:55:46.512Z,100
2022-09-26T00:56:06.565Z,100
2022-09-26T00:56:26.631Z,100
2022-09-26T00:56:46.703Z,100
2022-09-26T00:57:06.768Z,100
2022-09-26T00:57:26.825Z,100
2022-09-26T00:57:46.863Z,100
2022-09-26T00:58:06.899Z,100
2022-09-26T00:58:26.976Z,100
2022-09-26T00:58:47.043Z,100
2022-09-26T00:59:07.099Z,100
2022-09-26T00:59:27.154Z,100
2022-09-26T00:59:47.217Z,100
2022-09-26T01:00:07.289Z,100
2022-09-26T01:00:27.340Z,100
2022-09-26T01:00:47.470Z,100
2022-09-26T01:01:07.591Z,100
2022-09-26T01:01:27.681Z,100
2022-09-26T01:01:47.716Z,100
2022-09-26T01:02:07.889Z,100
2022-09-26T01:02:27.776Z,100
2022-09-26T01:02:47.794Z,100
2022-09-26T01:03:07.777Z,100
2022-09-26T01:03:27.847Z,100
2022-09-26T01:03:47.919Z,100
2022-09-26T01:04:07.972Z,100
2022-09-26T01:04:28.044Z,100
2022-09-26T01:04:48.152Z,100
2022-09-26T01:05:08.212Z,100
2022-09-26T01:05:28.260Z,100
2022-09-26T01:05:48.310Z,100
2022-09-26T01:06:08.395Z,100
2022-09-26T01:06:28.470Z,100
2022-09-26T01:06:48.515Z,100
2022-09-26T01:07:08.590Z,100
2022-09-26T01:07:28.663Z,100
2022-09-26T01:07:48.724Z,100
2022-09-26T01:08:08.838Z,100
2022-09-26T01:08:28.869Z,100
2022-09-26T01:08:48.913Z,100
2022-09-26T01:09:09.293Z,100
2022-09-26T01:09:29.068Z,100
2022-09-26T01:09:49.124Z,100
2022-09-26T01:10:09.184Z,100
2022-09-26T01:10:29.241Z,100
2022-09-26T01:10:49.319Z,100
2022-09-26T01:11:11.569Z,100
2022-09-26T01:11:29.449Z,100
2022-09-26T01:11:49.533Z,100
2022-09-26T01:12:09.614Z,100
2022-09-26T01:12:29.653Z,100
2022-09-26T01:12:49.742Z,100
2022-09-26T01:13:09.783Z,100
2022-09-26T01:13:29.845Z,100
2022-09-26T01:13:49.922Z,100
2022-09-26T01:14:09.978Z,100
2022-09-26T01:14:30.040Z,100
2022-09-26T01:14:50.090Z,100
2022-09-26T01:15:10.154Z,100
2022-09-26T01:15:30.220Z,100
2022-09-26T01:15:50.296Z,100
2022-09-26T01:16:10.440Z,100
2022-09-26T01:16:30.488Z,100
2022-09-26T01:16:50.563Z,100
2022-09-26T01:17:10.568Z,100
2022-09-26T01:17:30.633Z,100
2022-09-26T01:17:50.685Z,100
2022-09-26T01:18:10.742Z,100
2022-09-26T01:18:30.772Z,100
2022-09-26T01:18:50.847Z,100
2022-09-26T01:19:10.941Z,100
2022-09-26T01:19:30.979Z,100
2022-09-26T01:19:51.076Z,100
2022-09-26T01:20:11.149Z,100
2022-09-26T01:20:31.212Z,100
2022-09-26T01:20:51.282Z,100
2022-09-26T01:21:11.335Z,100
2022-09-26T01:21:31.393Z,100
2022-09-26T01:21:51.428Z,100
2022-09-26T01:22:11.511Z,100
2022-09-26T01:22:31.578Z,100
2022-09-26T01:22:51.651Z,100
2022-09-26T01:23:11.709Z,100
2022-09-26T01:23:31.773Z,100
2022-09-26T01:23:51.814Z,100
2022-09-26T01:24:11.887Z,100
2022-09-26T01:24:31.959Z,100
2022-09-26T01:24:52.002Z,100
2022-09-26T01:25:12.071Z,100
2022-09-26T01:25:32.118Z,100
2022-09-26T01:25:52.210Z,100
2022-09-26T01:26:12.276Z,100
2022-09-26T01:26:32.335Z,100
2022-09-26T01:26:52.407Z,100
2022-09-26T01:27:12.456Z,100
2022-09-26T01:27:32.527Z,100
2022-09-26T01:27:52.571Z,100
2022-09-26T01:28:12.630Z,100
2022-09-26T01:28:32.712Z,100
2022-09-26T01:28:52.794Z,100
2022-09-26T01:29:12.931Z,100
2022-09-26T01:29:32.923Z,100
2022-09-26T01:29:52.965Z,100
2022-09-26T01:30:13.011Z,100
2022-09-26T01:30:33.116Z,100
2022-09-26T01:30:53.127Z,100
2022-09-26T01:31:13.311Z,100
2022-09-26T01:31:33.289Z,100
2022-09-26T01:31:53.347Z,100
2022-09-26T01:32:13.439Z,100
2022-09-26T01:32:33.505Z,100
2022-09-26T01:32:53.573Z,100
2022-09-26T01:33:13.635Z,100
2022-09-26T01:33:33.698Z,100
2022-09-26T01:33:53.753Z,100
2022-09-26T01:34:13.823Z,100
2022-09-26T01:34:33.897Z,100
2022-09-26T01:34:53.951Z,100
2022-09-26T01:35:14.008Z,100
2022-09-26T01:35:34.068Z,100
2022-09-26T01:35:54.136Z,100
2022-09-26T01:36:14.198Z,100
2022-09-26T01:36:34.272Z,100
2022-09-26T01:36:54.324Z,100
2022-09-26T01:37:14.387Z,100
2022-09-26T01:37:34.446Z,100
2022-09-26T01:37:54.496Z,100
2022-09-26T01:38:14.578Z,100
2022-09-26T01:38:34.651Z,100
2022-09-26T01:38:54.705Z,100
2022-09-26T01:39:14.941Z,100
2022-09-26T01:39:34.825Z,100
2022-09-26T01:39:54.871Z,100
2022-09-26T01:40:14.965Z,100
2022-09-26T01:40:35.093Z,100
2022-09-26T01:40:55.138Z,100
2022-09-26T01:41:15.147Z,100
2022-09-26T01:41:35.205Z,100
2022-09-26T01:41:55.268Z,100
2022-09-26T01:42:15.335Z,100
2022-09-26T01:42:35.389Z,100
2022-09-26T01:42:55.450Z,100
2022-09-26T01:43:15.522Z,100
2022-09-26T01:43:35.553Z,100
2022-09-26T01:43:55.636Z,100
2022-09-26T01:44:15.664Z,100
2022-09-26T01:44:35.738Z,100
2022-09-26T01:44:55.824Z,100
2022-09-26T01:45:15.923Z,99.97
2022-09-26T01:45:36.059Z,99.95
2022-09-26T01:45:56.073Z,99.95
2022-09-26T01:46:16.152Z,99.89
2022-09-26T01:46:36.133Z,99.82
2022-09-26T01:46:56.203Z,99.82
2022-09-26T01:47:16.282Z,99.81
2022-09-26T01:47:36.352Z,99.75
2022-09-26T01:47:56.428Z,99.72
2022-09-26T01:48:16.494Z,99.7
2022-09-26T01:48:36.543Z,99.64
2022-09-26T01:48:56.624Z,99.62
2022-09-26T01:49:16.685Z,99.58
2022-09-26T01:49:36.763Z,99.54
2022-09-26T01:49:56.801Z,99.46
2022-09-26T01:50:16.867Z,99.42
2022-09-26T01:50:36.975Z,99.36
2022-09-26T01:50:57.013Z,99.38
2022-09-26T01:51:17.070Z,99.27
2022-09-26T01:51:37.309Z,99.25
2022-09-26T01:51:57.215Z,99.22
2022-09-26T01:52:17.295Z,99.22
2022-09-26T01:52:37.348Z,99.17
2022-09-26T01:52:57.414Z,99.16
2022-09-26T01:53:17.485Z,99.11
2022-09-26T01:53:37.548Z,99.07
2022-09-26T01:53:57.628Z,99.08
2022-09-26T01:54:17.710Z,99.03
2022-09-26T01:54:37.790Z,99.02
2022-09-26T01:54:57.812Z,99.03
2022-09-26T01:55:17.892Z,98.96
2022-09-26T01:55:37.951Z,98.96
2022-09-26T01:55:58.020Z,98.9
2022-09-26T01:56:18.081Z,98.92
2022-09-26T01:56:38.149Z,98.88
2022-09-26T01:56:58.235Z,98.89
2022-09-26T01:57:18.315Z,98.86
2022-09-26T01:57:38.338Z,98.84
2022-09-26T01:57:58.396Z,98.83
2022-09-26T01:58:18.438Z,98.79
2022-09-26T01:58:38.499Z,98.79
2022-09-26T01:58:58.587Z,98.78
2022-09-26T01:59:18.644Z,98.74
2022-09-26T01:59:38.710Z,98.7
2022-09-26T01:59:58.804Z,98.74
2022-09-26T02:00:18.857Z,98.68
2022-09-26T02:00:38.948Z,98.7
2022-09-26T02:00:59.082Z,98.62
2022-09-26T02:01:19.118Z,98.65
2022-09-26T02:01:39.321Z,98.63
2022-09-26T02:01:59.299Z,98.61
2022-09-26T02:02:19.431Z,98.63
2022-09-26T02:02:39.438Z,98.59
2022-09-26T02:02:59.431Z,98.57
2022-09-26T02:03:19.457Z,98.57
2022-09-26T02:03:39.535Z,98.57
2022-09-26T02:03:59.621Z,98.53
2022-09-26T02:04:19.683Z,98.54
2022-09-26T02:04:39.756Z,98.51
2022-09-26T02:04:59.801Z,98.46
2022-09-26T02:05:19.851Z,98.41
2022-09-26T02:05:39.923Z,98.39
2022-09-26T02:05:59.970Z,98.33
2022-09-26T02:06:20.036Z,98.26
2022-09-26T02:06:40.102Z,98.26
2022-09-26T02:07:00.171Z,98.22
2022-09-26T02:07:20.248Z,98.23
2022-09-26T02:07:40.290Z,98.19
2022-09-26T02:08:00.336Z,98.21
2022-09-26T02:08:20.397Z,98.14
2022-09-26T02:08:40.464Z,98.16
2022-09-26T02:09:00.503Z,98.14
2022-09-26T02:09:20.567Z,98.11
2022-09-26T02:09:40.619Z,98.1
2022-09-26T02:10:00.689Z,98.08
2022-09-26T02:10:20.772Z,98.12
2022-09-26T02:10:40.871Z,98.13
2022-09-26T02:11:00.936Z,98.1
2022-09-26T02:11:21.023Z,98.08
2022-09-26T02:11:41.089Z,98.08
2022-09-26T02:12:01.139Z,98.1
2022-09-26T02:12:21.189Z,98.07
2022-09-26T02:12:41.243Z,98.07
2022-09-26T02:13:01.302Z,98.05
2022-09-26T02:13:21.369Z,98.06
2022-09-26T02:13:41.461Z,98.01
2022-09-26T02:14:01.529Z,98.01
2022-09-26T02:14:21.607Z,98.01
2022-09-26T02:14:41.638Z,97.99
2022-09-26T02:15:01.731Z,98.03
2022-09-26T02:15:21.764Z,97.99
2022-09-26T02:15:41.823Z,97.94
2022-09-26T02:16:02.013Z,97.95
2022-09-26T02:16:21.999Z,97.93
2022-09-26T02:16:42.060Z,97.86
2022-09-26T02:17:02.209Z,97.88
2022-09-26T02:17:22.139Z,97.81
2022-09-26T02:17:42.205Z,97.8
2022-09-26T02:18:02.275Z,97.78
2022-09-26T02:18:22.368Z,97.73
2022-09-26T02:18:42.402Z,97.72
2022-09-26T02:19:02.497Z,97.65
2022-09-26T02:19:22.562Z,97.69
2022-09-26T02:19:42.610Z,97.66
2022-09-26T02:20:02.672Z,97.6
2022-09-26T02:20:22.740Z,97.57
2022-09-26T02:20:42.818Z,97.56
2022-09-26T02:21:02.856Z,97.54
2022-09-26T02:21:22.913Z,97.52
2022-09-26T02:21:42.953Z,97.53
2022-09-26T02:22:03.025Z,97.53
2022-09-26T02:22:23.107Z,97.53
2022-09-26T02:22:43.175Z,97.5
2022-09-26T02:23:03.234Z,97.49
2022-09-26T02:23:23.310Z,97.48
2022-09-26T02:23:43.393Z,97.49
2022-09-26T02:24:03.435Z,97.48
2022-09-26T02:24:23.480Z,97.46
2022-09-26T02:24:43.527Z,97.44
2022-09-26T02:25:03.567Z,97.46
2022-09-26T02:25:23.646Z,97.46
2022-09-26T02:25:43.714Z,97.45
2022-09-26T02:26:03.763Z,97.46
2022-09-26T02:26:23.818Z,97.44
2022-09-26T02:26:43.883Z,97.47
2022-09-26T02:27:03.981Z,97.46
2022-09-26T02:27:24.023Z,97.48
2022-09-26T02:27:44.088Z,97.48
2022-09-26T02:28:04.183Z,97.49
2022-09-26T02:28:24.222Z,97.51
2022-09-26T02:28:44.286Z,97.54
2022-09-26T02:29:04.359Z,97.53
2022-09-26T02:29:24.401Z,97.55
2022-09-26T02:29:44.459Z,97.51
2022-09-26T02:30:04.505Z,97.6
2022-09-26T02:30:24.590Z,97.59
2022-09-26T02:30:44.671Z,97.6
2022-09-26T02:31:04.736Z,97.58
2022-09-26T02:31:24.896Z,97.62
2022-09-26T02:31:44.925Z,97.63
2022-09-26T02:32:04.926Z,97.61
2022-09-26T02:32:24.920Z,97.61
2022-09-26T02:32:45.017Z,97.6
2022-09-26T02:33:05.086Z,97.58
2022-09-26T02:33:25.176Z,97.63
2022-09-26T02:33:45.255Z,97.64
2022-09-26T02:34:05.309Z,97.66
2022-09-26T02:34:25.392Z,97.67
2022-09-26T02:34:45.450Z,97.65
2022-09-26T02:35:05.525Z,97.62
2022-09-26T02:35:25.596Z,97.65
2022-09-26T02:35:45.665Z,97.61
2022-09-26T02:36:05.712Z,97.57
2022-09-26T02:36:25.771Z,97.61
2022-09-26T02:36:45.851Z,97.56
2022-09-26T02:37:05.889Z,97.55
2022-09-26T02:37:25.949Z,97.54
2022-09-26T02:37:46.036Z,97.56
2022-09-26T02:38:06.115Z,97.56
2022-09-26T02:38:26.185Z,97.56
2022-09-26T02:38:46.225Z,97.54
2022-09-26T02:39:06.402Z,97.51
2022-09-26T02:39:26.344Z,97.54
2022-09-26T02:39:46.424Z,97.56
2022-09-26T02:40:06.482Z,97.56
2022-09-26T02:40:26.631Z,97.57
2022-09-26T02:40:46.707Z,97.59
2022-09-26T02:41:06.706Z,97.61
2022-09-26T02:41:26.795Z,97.56
2022-09-26T02:41:46.842Z,97.58
2022-09-26T02:42:06.916Z,97.55
2022-09-26T02:42:26.985Z,97.56
2022-09-26T02:42:47.056Z,97.51
2022-09-26T02:43:07.095Z,97.52
2022-09-26T02:43:27.179Z,97.49
2022-09-26T02:43:47.236Z,97.5
2022-09-26T02:44:07.316Z,97.46
2022-09-26T02:44:27.371Z,97.47
2022-09-26T02:44:47.421Z,97.45
2022-09-26T02:45:07.492Z,97.45
2022-09-26T02:45:27.607Z,97.42
2022-09-26T02:45:47.649Z,97.45
2022-09-26T02:46:07.790Z,97.42
2022-09-26T02:46:27.756Z,97.41
2022-09-26T02:46:47.790Z,97.39
2022-09-26T02:47:07.845Z,97.37
2022-09-26T02:47:27.920Z,97.36
2022-09-26T02:47:48.029Z,97.3
2022-09-26T02:48:08.103Z,97.31
2022-09-26T02:48:28.192Z,97.29
2022-09-26T02:48:48.248Z,97.3
2022-09-26T02:49:08.353Z,97.29
2022-09-26T02:49:28.362Z,97.29
2022-09-26T02:49:48.429Z,97.29
2022-09-26T02:50:08.482Z,97.31
2022-09-26T02:50:28.554Z,97.29
2022-09-26T02:50:48.629Z,97.27
2022-09-26T02:51:08.647Z,97.3
2022-09-26T02:51:28.728Z,97.26
2022-09-26T02:51:48.780Z,97.27
2022-09-26T02:52:08.838Z,97.28
2022-09-26T02:52:28.921Z,97.3
2022-09-26T02:52:48.992Z,97.27
2022-09-26T02:53:09.056Z,97.28
2022-09-26T02:53:29.117Z,97.28
2022-09-26T02:53:49.225Z,97.32
2022-09-26T02:54:09.304Z,97.3
2022-09-26T02:54:29.382Z,97.27
2022-09-26T02:54:49.475Z,97.28
2022-09-26T02:55:09.529Z,97.25
2022-09-26T02:55:29.603Z,97.22
2022-09-26T02:55:49.677Z,97.23
2022-09-26T02:56:09.732Z,97.26
2022-09-26T02:56:29.791Z,97.24
2022-09-26T02:56:49.851Z,97.21
2022-09-26T02:57:09.922Z,97.16
2022-09-26T02:57:29.975Z,97.15
2022-09-26T02:57:50.058Z,97.16
2022-09-26T02:58:10.139Z,97.16
2022-09-26T02:58:30.214Z,97.23
2022-09-26T02:58:50.301Z,97.27
2022-09-26T02:59:10.369Z,97.32
2022-09-26T02:59:30.395Z,97.29
2022-09-26T02:59:50.467Z,97.28
2022-09-26T03:00:10.541Z,97.26
2022-09-26T03:00:30.593Z,97.31
2022-09-26T03:00:50.781Z,97.29
2022-09-26T03:01:10.891Z,97.3
2022-09-26T03:01:30.867Z,97.33
2022-09-26T03:01:50.833Z,97.32
2022-09-26T03:02:10.899Z,97.33
2022-09-26T03:02:30.946Z,97.36
2022-09-26T03:02:50.992Z,97.36
2022-09-26T03:03:11.068Z,97.41
2022-09-26T03:03:31.206Z,97.4
2022-09-26T03:03:51.244Z,97.43
2022-09-26T03:04:11.241Z,97.46
2022-09-26T03:04:31.362Z,97.52
2022-09-26T03:04:51.490Z,97.53
2022-09-26T03:05:11.564Z,97.58
2022-09-26T03:05:31.458Z,97.59
2022-09-26T03:05:51.499Z,97.64
2022-09-26T03:06:11.579Z,97.68
2022-09-26T03:06:31.633Z,97.71
2022-09-26T03:06:51.776Z,97.7
2022-09-26T03:07:11.770Z,97.7
2022-09-26T03:07:31.863Z,97.7
2022-09-26T03:07:51.954Z,97.74
2022-09-26T03:08:12.051Z,97.69
2022-09-26T03:08:32.121Z,97.71
2022-09-26T03:08:52.153Z,97.65
2022-09-26T03:09:12.304Z,97.71
2022-09-26T03:09:32.314Z,97.75
2022-09-26T03:09:52.344Z,97.73
2022-09-26T03:10:12.418Z,97.69
2022-09-26T03:10:32.445Z,97.75
2022-09-26T03:10:52.517Z,97.73
2022-09-26T03:11:12.607Z,97.77
2022-09-26T03:11:32.696Z,97.81
2022-09-26T03:11:52.745Z,97.76
2022-09-26T03:12:12.794Z,97.72
2022-09-26T03:12:32.853Z,97.71
2022-09-26T03:12:52.897Z,97.68
2022-09-26T03:13:12.982Z,97.72
2022-09-26T03:13:33.050Z,97.68
2022-09-26T03:13:53.101Z,97.72
2022-09-26T03:14:13.155Z,97.69
2022-09-26T03:14:33.216Z,97.71
2022-09-26T03:14:58.414Z,97.67
2022-09-26T03:15:13.364Z,97.67
2022-09-26T03:15:33.426Z,97.64
2022-09-26T03:15:53.473Z,97.67
2022-09-26T03:16:13.603Z,97.66
2022-09-26T03:16:33.677Z,97.66
2022-09-26T03:16:53.763Z,97.7
2022-09-26T03:17:13.712Z,97.71
2022-09-26T03:17:33.781Z,97.69
2022-09-26T03:17:53.839Z,97.67
2022-09-26T03:18:13.878Z,97.63
2022-09-26T03:18:33.928Z,97.58
2022-09-26T03:18:53.981Z,97.62
2022-09-26T03:19:14.185Z,97.61
2022-09-26T03:19:34.145Z,97.65
2022-09-26T03:19:54.206Z,97.69
2022-09-26T03:20:14.257Z,97.63
2022-09-26T03:20:34.322Z,97.62
2022-09-26T03:20:54.479Z,97.64
2022-09-26T03:21:14.490Z,97.63
2022-09-26T03:21:36.944Z,97.65
2022-09-26T03:21:54.640Z,97.68
2022-09-26T03:22:14.692Z,97.71
2022-09-26T03:22:34.742Z,97.72
2022-09-26T03:22:54.822Z,97.71
2022-09-26T03:23:14.865Z,97.66
2022-09-26T03:23:34.898Z,97.72
2022-09-26T03:23:54.940Z,97.7
2022-09-26T03:24:15.027Z,97.67
2022-09-26T03:24:35.109Z,97.65
2022-09-26T03:24:55.164Z,97.66
2022-09-26T03:25:15.228Z,97.67
2022-09-26T03:25:35.294Z,97.62
2022-09-26T03:25:55.342Z,97.59
2022-09-26T03:26:15.409Z,97.55
2022-09-26T03:26:35.487Z,97.51
2022-09-26T03:26:55.533Z,97.47
2022-09-26T03:27:15.617Z,97.46
2022-09-26T03:27:35.671Z,97.45
2022-09-26T03:27:55.728Z,97.4
2022-09-26T03:28:15.771Z,97.39
2022-09-26T03:28:37.934Z,97.42
2022-09-26T03:28:55.885Z,97.45
2022-09-26T03:29:15.983Z,97.48
2022-09-26T03:29:36.031Z,97.48
2022-09-26T03:29:56.085Z,97.46
2022-09-26T03:30:16.154Z,97.41
2022-09-26T03:30:36.233Z,97.4
2022-09-26T03:30:56.322Z,97.4
2022-09-26T03:31:16.467Z,97.36
2022-09-26T03:31:36.553Z,97.33
2022-09-26T03:31:56.635Z,97.34
2022-09-26T03:32:16.677Z,97.35
2022-09-26T03:32:36.675Z,97.33
2022-09-26T03:32:56.750Z,97.29
2022-09-26T03:33:16.774Z,97.3
2022-09-26T03:33:36.825Z,97.27
2022-09-26T03:33:56.882Z,97.29
2022-09-26T03:34:16.943Z,97.28
2022-09-26T03:34:37.027Z,97.27
2022-09-26T03:34:57.088Z,97.34
2022-09-26T03:35:17.156Z,97.34
2022-09-26T03:35:37.219Z,97.35
2022-09-26T03:35:57.295Z,97.35
2022-09-26T03:36:17.369Z,97.34
2022-09-26T03:36:37.465Z,97.31
2022-09-26T03:36:57.520Z,97.3
2022-09-26T03:37:17.614Z,97.28
2022-09-26T03:37:37.659Z,97.3
2022-09-26T03:37:57.714Z,97.26
2022-09-26T03:38:17.805Z,97.3
2022-09-26T03:38:37.877Z,97.26
2022-09-26T03:38:57.957Z,97.3
2022-09-26T03:39:18.026Z,97.31
2022-09-26T03:39:38.096Z,97.37
2022-09-26T03:39:58.166Z,97.34
2022-09-26T03:40:18.295Z,97.38
2022-09-26T03:40:38.348Z,97.39
2022-09-26T03:40:58.477Z,97.42
2022-09-26T03:41:18.420Z,97.45
2022-09-26T03:41:38.493Z,97.48
2022-09-26T03:41:58.535Z,97.52
2022-09-26T03:42:18.609Z,97.48
2022-09-26T03:42:38.674Z,97.47
2022-09-26T03:42:58.743Z,97.46
2022-09-26T03:43:18.829Z,97.46
2022-09-26T03:43:38.919Z,97.46
2022-09-26T03:43:59.004Z,97.47
2022-09-26T03:44:19.044Z,97.52
2022-09-26T03:44:39.113Z,97.51
2022-09-26T03:44:59.152Z,97.52
2022-09-26T03:45:19.203Z,97.52
2022-09-26T03:45:39.344Z,97.51
2022-09-26T03:45:59.397Z,97.47
2022-09-26T03:46:19.510Z,97.48
2022-09-26T03:46:40.270Z,97.45
2022-09-26T03:46:59.501Z,97.48
2022-09-26T03:47:19.564Z,97.5
2022-09-26T03:47:39.641Z,97.53
2022-09-26T03:47:59.717Z,97.56
2022-09-26T03:48:19.775Z,97.56
2022-09-26T03:48:39.859Z,97.54
2022-09-26T03:48:59.939Z,97.56
2022-09-26T03:49:20.032Z,97.55
2022-09-26T03:49:40.065Z,97.56
2022-09-26T03:50:00.116Z,97.51
2022-09-26T03:50:20.195Z,97.53
2022-09-26T03:50:40.265Z,97.52
2022-09-26T03:51:00.329Z,97.54
2022-09-26T03:51:20.355Z,97.53
2022-09-26T03:51:40.434Z,97.53
2022-09-26T03:52:00.496Z,97.5
2022-09-26T03:52:20.605Z,97.5
2022-09-26T03:52:40.676Z,97.46
2022-09-26T03:53:00.698Z,97.44
2022-09-26T03:53:20.766Z,97.43
2022-09-26T03:53:40.818Z,97.41
2022-09-26T03:54:00.903Z,97.37
2022-09-26T03:54:20.973Z,97.42
2022-09-26T03:54:41.031Z,97.42
2022-09-26T03:55:01.111Z,97.43
2022-09-26T03:55:21.195Z,97.41
2022-09-26T03:55:41.276Z,97.36
2022-09-26T03:56:01.354Z,97.37
2022-09-26T03:56:21.416Z,97.34
2022-09-26T03:56:41.514Z,97.37
2022-09-26T03:57:01.540Z,97.33
2022-09-26T03:57:21.605Z,97.3
2022-09-26T03:57:41.669Z,97.32
2022-09-26T03:58:01.778Z,97.25
2022-09-26T03:58:21.851Z,97.24
2022-09-26T03:58:41.931Z,97.26
2022-09-26T03:59:01.988Z,97.19
2022-09-26T03:59:22.086Z,97.22
2022-09-26T03:59:42.178Z,97.15
2022-09-26T04:00:02.270Z,97.19
2022-09-26T04:00:22.333Z,97.19
2022-09-26T04:00:42.461Z,97.16
2022-09-26T04:01:02.473Z,97.17
2022-09-26T04:01:22.558Z,97.11
2022-09-26T04:01:42.583Z,97.12
2022-09-26T04:02:02.724Z,97.04
2022-09-26T04:02:22.862Z,97.06
2022-09-26T04:02:42.885Z,97.02
2022-09-26T04:03:02.835Z,97.05
2022-09-26T04:03:22.899Z,97.06
2022-09-26T04:03:47.769Z,97.05
2022-09-26T04:04:03.033Z,97.07
2022-09-26T04:04:23.090Z,97.06
2022-09-26T04:04:43.156Z,97.04
2022-09-26T04:05:03.205Z,97.05
2022-09-26T04:05:23.273Z,96.99
2022-09-26T04:05:43.331Z,97
2022-09-26T04:06:03.361Z,96.98
2022-09-26T04:06:23.439Z,96.97
2022-09-26T04:06:43.517Z,96.97
2022-09-26T04:07:03.578Z,96.99
2022-09-26T04:07:23.609Z,96.93
2022-09-26T04:07:43.665Z,96.92
2022-09-26T04:08:03.745Z,96.94
2022-09-26T04:08:23.809Z,96.88
2022-09-26T04:08:43.867Z,96.87
2022-09-26T04:09:03.931Z,96.92
2022-09-26T04:09:24.002Z,96.88
2022-09-26T04:09:44.108Z,96.91
2022-09-26T04:10:04.180Z,96.89
2022-09-26T04:10:24.235Z,96.91
2022-09-26T04:10:44.283Z,96.89
2022-09-26T04:11:04.310Z,96.91
2022-09-26T04:11:24.373Z,96.92
2022-09-26T04:11:44.468Z,96.92
2022-09-26T04:12:04.538Z,96.94
2022-09-26T04:12:24.590Z,96.92
2022-09-26T04:12:44.680Z,96.91
2022-09-26T04:13:04.737Z,96.93
2022-09-26T04:13:50.141Z,96.91
2022-09-26T04:13:53.519Z,96.93
2022-09-26T04:14:04.930Z,96.94
2022-09-26T04:14:24.995Z,96.96
2022-09-26T04:14:45.054Z,96.96
2022-09-26T04:15:05.115Z,96.94
2022-09-26T04:15:25.206Z,96.97
2022-09-26T04:15:45.238Z,96.98
2022-09-26T04:16:05.366Z,97
2022-09-26T04:16:25.407Z,96.98
2022-09-26T04:16:45.471Z,96.99
2022-09-26T04:17:05.482Z,97.02
2022-09-26T04:17:25.554Z,96.98
2022-09-26T04:17:45.590Z,96.95
2022-09-26T04:18:05.681Z,96.93
2022-09-26T04:18:25.714Z,96.91
2022-09-26T04:18:45.799Z,96.97
2022-09-26T04:19:05.957Z,97
2022-09-26T04:19:25.909Z,96.95
2022-09-26T04:19:45.999Z,96.93
2022-09-26T04:20:06.055Z,96.9
2022-09-26T04:20:26.147Z,96.89
2022-09-26T04:20:46.199Z,96.89
2022-09-26T04:21:09.858Z,96.91
2022-09-26T04:21:26.335Z,96.89
2022-09-26T04:21:46.363Z,96.87
2022-09-26T04:22:06.452Z,96.86
2022-09-26T04:22:26.508Z,96.8
2022-09-26T04:22:46.602Z,96.83
2022-09-26T04:23:06.644Z,96.79
2022-09-26T04:23:26.708Z,96.77
2022-09-26T04:23:46.744Z,96.75